createdAt,value
2022-08-31T00:00:27.977Z,24.05
2022-08-31T00:03:17.460Z,24.50
2022-08-31T00:05:48.854Z,24.90
2022-08-31T00:08:19.875Z,23.00
2022-08-31T00:10:51.074Z,26.08
2022-08-31T00:13:22.218Z,34.10
2022-08-31T00:15:54.795Z,26.60
2022-08-31T00:18:25.951Z,26.27
2022-08-31T00:20:58.381Z,34.50
2022-08-31T00:23:29.557Z,28.60
2022-08-31T00:26:00.809Z,29.25
2022-08-31T00:28:32.008Z,31.13
2022-08-31T00:31:03.103Z,29.08
2022-08-31T00:33:34.157Z,27.67
2022-08-31T00:36:10.726Z,27.00
2022-08-31T00:38:42.953Z,27.63
2022-08-31T00:41:14.990Z,28.08
2022-08-31T00:43:56.319Z,31.52
2022-08-31T00:46:39.945Z,30.83
2022-08-31T00:49:30.814Z,27.80
2022-08-31T00:52:27.748Z,29.00
2022-08-31T00:55:11.676Z,29.33
2022-08-31T00:58:11.399Z,32.03
2022-08-31T01:00:44.571Z,31.45
2022-08-31T01:03:15.598Z,31.75
2022-08-31T01:05:47.111Z,29.27
2022-08-31T01:08:18.624Z,34.92
2022-08-31T01:10:55.307Z,35.28
2022-08-31T01:13:26.621Z,30.77
2022-08-31T01:16:04.138Z,30.23
2022-08-31T01:18:36.734Z,30.25
2022-08-31T01:21:19.786Z,32.75
2022-08-31T01:23:50.951Z,31.73
2022-08-31T01:26:26.269Z,34.30
2022-08-31T01:29:01.333Z,31.58
2022-08-31T01:31:59.259Z,28.60
2022-08-31T01:34:30.703Z,30.35
2022-08-31T01:37:02.023Z,34.13
2022-08-31T01:39:33.573Z,32.38
2022-08-31T01:42:04.562Z,30.65
2022-08-31T01:44:36.435Z,35.55
2022-08-31T01:47:07.512Z,29.20
2022-08-31T01:49:58.880Z,30.42
2022-08-31T01:52:31.282Z,28.90
2022-08-31T01:55:22.024Z,31.33
2022-08-31T01:58:12.768Z,32.13
2022-08-31T02:00:47.870Z,32.08
2022-08-31T02:03:19.346Z,32.97
2022-08-31T02:05:50.340Z,30.25
2022-08-31T02:08:21.256Z,29.60
2022-08-31T02:10:54.096Z,30.83
2022-08-31T02:13:25.025Z,32.60
2022-08-31T02:15:56.366Z,31.27
2022-08-31T02:18:28.011Z,29.23
2022-08-31T02:26:45.498Z,29.05
2022-08-31T02:29:16.665Z,29.75
2022-08-31T02:31:48.764Z,27.92
2022-08-31T02:34:19.858Z,27.50
2022-08-31T02:36:50.698Z,26.95
2022-08-31T02:39:23.043Z,27.63
2022-08-31T02:41:54.710Z,28.52
2022-08-31T02:44:26.538Z,26.92
2022-08-31T02:46:59.011Z,27.42
2022-08-31T02:49:44.472Z,29.33
2022-08-31T02:52:15.543Z,26.60
2022-08-31T02:54:46.553Z,27.30
2022-08-31T02:57:38.874Z,26.40
2022-08-31T03:00:12.606Z,25.23
2022-08-31T03:02:45.566Z,29.45
2022-08-31T03:05:17.998Z,30.00
2022-08-31T03:07:51.015Z,23.83
2022-08-31T03:10:25.147Z,25.48
2022-08-31T03:12:56.671Z,27.15
2022-08-31T03:15:29.166Z,25.95
2022-08-31T03:18:00.487Z,26.13
2022-08-31T03:20:56.965Z,25.75
2022-08-31T03:23:29.042Z,23.27
2022-08-31T03:26:00.626Z,25.10
2022-08-31T03:28:31.775Z,25.40
2022-08-31T03:31:26.173Z,28.23
2022-08-31T03:33:58.987Z,31.23
2022-08-31T03:36:29.991Z,26.42
2022-08-31T03:39:01.137Z,23.60
2022-08-31T03:41:32.314Z,27.73
2022-08-31T03:44:03.550Z,25.80
2022-08-31T03:46:35.755Z,25.83
2022-08-31T03:49:07.603Z,23.27
2022-08-31T03:51:38.894Z,23.63
2022-08-31T03:54:10.352Z,23.90
2022-08-31T03:56:41.906Z,22.88
2022-08-31T03:59:12.747Z,26.55
2022-08-31T04:02:01.590Z,27.02
2022-08-31T04:04:56.483Z,27.42
2022-08-31T04:07:46.490Z,24.45
2022-08-31T04:10:35.262Z,25.98
2022-08-31T04:13:30.579Z,23.25
2022-08-31T04:16:24.239Z,23.77
2022-08-31T04:18:55.659Z,27.88
2022-08-31T04:21:29.386Z,23.98
2022-08-31T04:24:02.355Z,23.92
2022-08-31T04:26:39.407Z,23.52
2022-08-31T04:29:13.359Z,23.95
2022-08-31T04:31:46.857Z,23.17
2022-08-31T04:34:18.236Z,24.17
2022-08-31T04:36:49.175Z,26.02
2022-08-31T04:39:22.268Z,23.88
2022-08-31T04:41:55.406Z,24.42
2022-08-31T04:44:28.172Z,24.30
2022-08-31T04:47:01.710Z,25.60
2022-08-31T04:49:33.112Z,26.08
2022-08-31T04:52:28.272Z,23.33
2022-08-31T04:55:00.661Z,25.92
2022-08-31T04:57:33.666Z,23.27
2022-08-31T05:03:33.880Z,23.45
2022-08-31T05:06:05.230Z,23.73
2022-08-31T05:08:36.301Z,24.33
2022-08-31T05:11:15.082Z,22.85
2022-08-31T05:13:46.818Z,23.75
2022-08-31T05:16:21.285Z,25.63
2022-08-31T05:18:53.756Z,22.95
2022-08-31T05:21:30.067Z,24.02
2022-08-31T05:24:21.510Z,21.02
2022-08-31T05:26:56.596Z,25.33
2022-08-31T05:29:28.479Z,21.77
2022-08-31T05:32:23.648Z,22.38
2022-08-31T05:34:58.709Z,22.23
2022-08-31T05:37:30.783Z,24.83
2022-08-31T05:40:03.290Z,23.17
2022-08-31T05:42:36.211Z,21.40
2022-08-31T05:45:07.674Z,25.90
2022-08-31T05:47:41.150Z,21.33
2022-08-31T05:50:13.968Z,21.45
2022-08-31T05:53:06.211Z,22.25
2022-08-31T05:55:39.484Z,22.98
2022-08-31T05:58:13.509Z,24.13
2022-08-31T06:11:05.572Z,22.42
2022-08-31T06:13:45.725Z,21.92
2022-08-31T06:16:18.797Z,24.40
2022-08-31T06:18:53.453Z,22.92
2022-08-31T06:21:27.987Z,20.65
2022-08-31T06:24:02.369Z,21.95
2022-08-31T06:26:35.162Z,24.33
2022-08-31T06:29:11.334Z,25.23
2022-08-31T06:31:48.303Z,23.70
2022-08-31T06:34:23.279Z,21.30
2022-08-31T06:37:18.607Z,22.52
2022-08-31T06:40:08.697Z,24.42
2022-08-31T06:42:49.407Z,21.05
2022-08-31T06:45:36.203Z,23.08
2022-08-31T06:48:57.383Z,20.60
2022-08-31T06:51:37.794Z,23.58
2022-08-31T06:54:29.139Z,21.02
2022-08-31T06:57:19.397Z,20.73
2022-08-31T06:59:53.171Z,22.55
2022-08-31T07:02:46.926Z,20.73
2022-08-31T07:05:28.759Z,20.08
2022-08-31T07:07:59.844Z,24.25
2022-08-31T07:10:35.899Z,19.65
2022-08-31T07:15:52.235Z,20.77
2022-08-31T07:18:24.712Z,24.30
2022-08-31T07:20:57.882Z,19.85
2022-08-31T07:23:31.372Z,21.17
2022-08-31T07:26:23.873Z,23.15
2022-08-31T07:28:58.866Z,22.38
2022-08-31T07:31:43.988Z,21.80
2022-08-31T07:34:19.937Z,22.20
2022-08-31T07:37:26.076Z,21.63
2022-08-31T07:40:17.746Z,20.58
2022-08-31T07:42:49.437Z,20.50
2022-08-31T07:45:29.161Z,20.42
2022-08-31T07:48:04.791Z,18.50
2022-08-31T07:51:07.102Z,22.35
2022-08-31T07:54:02.120Z,20.17
2022-08-31T07:57:26.521Z,20.38
2022-08-31T08:00:09.668Z,19.63
2022-08-31T08:02:53.151Z,19.60
2022-08-31T08:05:35.406Z,20.23
2022-08-31T08:08:40.251Z,21.30
2022-08-31T08:11:44.362Z,20.55
2022-08-31T08:14:37.114Z,18.35
2022-08-31T08:17:18.638Z,18.58
2022-08-31T08:20:13.533Z,16.83
2022-08-31T08:22:54.105Z,20.05
2022-08-31T08:25:39.049Z,18.42
2022-08-31T08:28:55.571Z,19.70
2022-08-31T08:31:47.937Z,18.02
2022-08-31T08:34:21.213Z,18.25
2022-08-31T08:37:00.822Z,16.75
2022-08-31T08:42:23.851Z,17.35
2022-08-31T08:44:55.116Z,17.52
2022-08-31T08:47:38.285Z,16.73
2022-08-31T08:50:12.385Z,16.33
2022-08-31T08:52:49.286Z,16.75
2022-08-31T08:55:24.461Z,15.82
2022-08-31T08:57:57.410Z,14.35
2022-08-31T09:00:29.942Z,16.90
2022-08-31T09:03:26.932Z,15.90
2022-08-31T09:06:45.820Z,14.00
2022-08-31T09:09:30.920Z,15.32
2022-08-31T09:12:39.805Z,14.48
2022-08-31T09:15:42.041Z,15.88
2022-08-31T09:18:36.163Z,22.50
2022-08-31T09:21:22.749Z,14.38
2022-08-31T09:24:09.748Z,15.80
2022-08-31T09:27:32.211Z,15.55
2022-08-31T09:32:59.173Z,13.77
2022-08-31T09:35:44.107Z,14.07
2022-08-31T09:38:33.370Z,16.10
2022-08-31T09:41:04.890Z,15.35
2022-08-31T09:43:41.157Z,15.23
2022-08-31T09:46:29.737Z,20.10
2022-08-31T09:49:07.110Z,15.00
2022-08-31T09:52:01.037Z,15.55
2022-08-31T09:54:49.802Z,16.40
2022-08-31T09:57:21.139Z,15.68
2022-08-31T09:59:52.896Z,15.38
2022-08-31T10:02:28.071Z,14.98
2022-08-31T10:05:07.697Z,15.05
2022-08-31T10:07:59.926Z,16.23
2022-08-31T10:10:38.827Z,15.95
2022-08-31T10:13:38.956Z,15.40
2022-08-31T10:16:38.367Z,14.90
2022-08-31T10:19:44.326Z,14.93
2022-08-31T10:22:43.270Z,13.63
2022-08-31T10:25:42.169Z,13.82
2022-08-31T10:28:22.902Z,15.15
2022-08-31T10:34:34.793Z,13.65
2022-08-31T10:37:18.617Z,17.60
2022-08-31T10:39:55.959Z,15.18
2022-08-31T10:43:10.629Z,15.65
2022-08-31T10:45:45.504Z,15.25
2022-08-31T10:51:21.822Z,17.35
2022-08-31T10:54:25.961Z,13.98
2022-08-31T10:57:31.406Z,13.52
2022-08-31T11:00:05.427Z,15.05
2022-08-31T11:03:01.717Z,13.90
2022-08-31T11:05:37.595Z,14.48
2022-08-31T11:11:20.381Z,15.75
2022-08-31T11:17:12.015Z,14.98
2022-08-31T11:20:01.409Z,16.02
2022-08-31T11:22:38.937Z,13.70
2022-08-31T11:25:22.059Z,14.18
2022-08-31T11:28:20.636Z,16.50
2022-08-31T11:30:53.537Z,14.98
2022-08-31T11:33:29.364Z,15.13
2022-08-31T11:36:41.249Z,14.70
2022-08-31T11:39:38.296Z,14.95
2022-08-31T11:42:21.850Z,13.77
2022-08-31T11:45:33.033Z,16.23
2022-08-31T11:48:06.841Z,14.95
2022-08-31T11:50:59.002Z,14.40
2022-08-31T11:53:37.889Z,15.63
2022-08-31T11:56:11.082Z,17.30
2022-08-31T11:58:43.610Z,17.08
2022-08-31T12:01:20.490Z,17.42
2022-08-31T12:04:04.647Z,14.45
2022-08-31T12:10:01.362Z,15.32
2022-08-31T12:13:08.990Z,13.70
2022-08-31T12:15:54.228Z,17.52
2022-08-31T12:19:33.615Z,19.05
2022-08-31T12:22:40.156Z,16.35
2022-08-31T12:25:56.451Z,16.55
2022-08-31T12:28:55.362Z,15.63
2022-08-31T12:31:27.936Z,14.82
2022-08-31T12:34:03.492Z,13.07
2022-08-31T12:36:54.477Z,14.10
2022-08-31T12:39:45.587Z,15.68
2022-08-31T12:42:16.999Z,18.55
2022-08-31T12:44:53.489Z,15.23
2022-08-31T12:47:36.051Z,19.00
2022-08-31T12:50:23.539Z,15.50
2022-08-31T12:53:07.681Z,18.92
2022-08-31T12:55:53.361Z,14.20
2022-08-31T12:58:33.641Z,16.73
2022-08-31T13:01:12.748Z,18.35
2022-08-31T13:03:53.885Z,16.35
2022-08-31T13:06:32.241Z,15.38
2022-08-31T13:09:04.359Z,17.25
2022-08-31T13:11:41.919Z,16.15
2022-08-31T13:14:15.528Z,14.98
2022-08-31T13:16:51.525Z,14.63
2022-08-31T13:19:29.248Z,13.98
2022-08-31T13:22:06.611Z,16.88
2022-08-31T13:24:53.468Z,14.82
2022-08-31T13:27:28.611Z,14.95
2022-08-31T13:30:20.262Z,16.48
2022-08-31T13:33:15.910Z,16.95
2022-08-31T13:36:08.046Z,17.75
2022-08-31T13:38:52.382Z,15.15
2022-08-31T13:41:30.010Z,17.05
2022-08-31T13:44:04.131Z,17.35
2022-08-31T13:46:43.273Z,17.77
2022-08-31T13:49:36.825Z,16.23
2022-08-31T13:52:16.770Z,16.10
2022-08-31T13:55:05.423Z,17.33
2022-08-31T13:57:40.633Z,17.23
2022-08-31T14:00:35.964Z,15.43
2022-08-31T14:03:54.900Z,17.48
2022-08-31T14:06:36.103Z,15.50
2022-08-31T14:09:48.539Z,16.83
2022-08-31T14:12:43.355Z,15.90
2022-08-31T14:15:20.270Z,15.55
2022-08-31T14:21:27.437Z,13.95
2022-08-31T14:24:04.636Z,15.43
2022-08-31T14:27:00.939Z,15.68
2022-08-31T14:29:35.514Z,15.02
2022-08-31T14:32:08.639Z,15.27
2022-08-31T14:34:43.771Z,15.73
2022-08-31T14:37:34.321Z,15.07
2022-08-31T14:40:08.316Z,16.45
2022-08-31T14:42:52.590Z,14.35
2022-08-31T14:45:26.075Z,17.35
2022-08-31T14:48:00.331Z,14.90
2022-08-31T14:50:33.226Z,13.95
2022-08-31T14:53:09.896Z,14.37
2022-08-31T14:55:43.526Z,13.25
2022-08-31T14:58:18.593Z,13.80
2022-08-31T15:01:10.412Z,14.23
2022-08-31T15:03:43.081Z,13.95
2022-08-31T15:06:21.161Z,15.40
2022-08-31T15:08:54.988Z,13.13
2022-08-31T15:11:27.293Z,14.88
2022-08-31T15:13:58.294Z,14.30
2022-08-31T15:16:32.055Z,14.30
2022-08-31T15:19:24.675Z,16.70
2022-08-31T15:22:25.157Z,14.73
2022-08-31T15:25:24.728Z,16.38
2022-08-31T15:28:00.194Z,17.55
2022-08-31T15:30:31.431Z,15.77
2022-08-31T15:33:03.803Z,14.75
2022-08-31T15:36:08.849Z,16.85
2022-08-31T15:39:19.316Z,14.25
2022-08-31T15:41:51.564Z,15.65
2022-08-31T15:44:23.904Z,15.35
2022-08-31T15:47:13.046Z,17.08
2022-08-31T15:49:45.396Z,15.35
2022-08-31T15:52:16.495Z,16.02
2022-08-31T15:54:51.764Z,15.30
2022-08-31T15:57:26.947Z,16.95
2022-08-31T16:00:21.210Z,16.48
2022-08-31T16:02:55.136Z,15.55
2022-08-31T16:05:40.281Z,16.50
2022-08-31T16:08:13.774Z,16.30
2022-08-31T16:10:49.258Z,15.00
2022-08-31T16:13:20.607Z,15.02
2022-08-31T16:16:14.815Z,18.23
2022-08-31T16:18:51.669Z,14.73
2022-08-31T16:21:26.807Z,15.60
2022-08-31T16:24:03.822Z,16.63
2022-08-31T16:26:38.447Z,15.10
2022-08-31T16:29:16.155Z,15.88
2022-08-31T16:32:09.718Z,16.88
2022-08-31T16:34:41.585Z,15.85
2022-08-31T16:37:14.755Z,16.70
2022-08-31T16:39:49.907Z,16.15
2022-08-31T16:42:21.051Z,16.05
2022-08-31T16:47:41.284Z,16.40
2022-08-31T16:50:12.690Z,19.02
2022-08-31T16:52:46.423Z,15.13
2022-08-31T16:55:18.478Z,16.92
2022-08-31T16:57:49.617Z,16.27
2022-08-31T17:00:20.924Z,17.65
2022-08-31T17:03:00.114Z,22.55
2022-08-31T17:05:31.227Z,16.98
2022-08-31T17:08:02.254Z,19.05
2022-08-31T17:10:35.766Z,17.85
2022-08-31T17:13:06.578Z,19.45
2022-08-31T17:15:37.571Z,18.77
2022-08-31T17:20:44.990Z,18.35
2022-08-31T17:23:17.386Z,19.42
2022-08-31T17:25:49.495Z,20.40
2022-08-31T17:28:27.297Z,19.52
2022-08-31T17:30:59.302Z,18.05
2022-08-31T17:36:20.158Z,19.45
2022-08-31T17:38:54.085Z,19.40
2022-08-31T17:41:27.938Z,19.85
2022-08-31T17:44:01.893Z,22.02
2022-08-31T17:46:32.903Z,17.35
2022-08-31T17:49:04.566Z,17.45
2022-08-31T17:51:36.911Z,16.88
2022-08-31T17:54:13.681Z,17.75
2022-08-31T17:56:49.425Z,20.15
2022-08-31T17:59:23.678Z,20.27
2022-08-31T18:01:57.092Z,19.83
2022-08-31T18:04:29.611Z,19.67
2022-08-31T18:07:01.581Z,20.27
2022-08-31T18:09:36.225Z,20.98
2022-08-31T18:12:08.021Z,18.13
2022-08-31T18:14:40.128Z,20.17
2022-08-31T18:17:13.880Z,19.38
2022-08-31T18:19:45.973Z,24.27
2022-08-31T18:25:09.986Z,23.70
2022-08-31T18:27:40.963Z,23.33
2022-08-31T18:30:15.158Z,23.15
2022-08-31T18:32:47.774Z,23.35
2022-08-31T18:35:19.056Z,21.95
2022-08-31T18:40:58.321Z,23.63
2022-08-31T18:43:47.360Z,23.85
2022-08-31T18:46:17.978Z,22.48
2022-08-31T18:49:11.482Z,26.15
2022-08-31T18:52:03.537Z,24.70
2022-08-31T18:54:35.308Z,24.23
2022-08-31T18:57:06.325Z,25.00
2022-08-31T18:59:38.714Z,23.08
2022-08-31T19:02:10.307Z,23.15
2022-08-31T19:04:42.163Z,25.48
2022-08-31T19:07:38.103Z,25.02
2022-08-31T19:10:13.072Z,24.67
2022-08-31T19:15:35.199Z,25.17
2022-08-31T19:18:07.606Z,25.02
2022-08-31T19:20:39.263Z,25.02
2022-08-31T19:23:10.454Z,22.75
2022-08-31T19:25:46.363Z,24.75
2022-08-31T19:28:17.358Z,23.95
2022-08-31T19:30:49.926Z,26.25
2022-08-31T19:33:26.106Z,26.30
2022-08-31T19:36:04.612Z,23.77
2022-08-31T19:38:35.881Z,25.00
2022-08-31T19:46:52.367Z,26.38
2022-08-31T19:49:24.472Z,30.83
2022-08-31T19:51:59.602Z,28.65
2022-08-31T19:54:36.507Z,26.73
2022-08-31T19:57:12.632Z,25.25
2022-08-31T19:59:45.621Z,25.23
2022-08-31T20:02:18.364Z,25.13
2022-08-31T20:04:50.205Z,24.58
2022-08-31T20:07:24.965Z,23.38
2022-08-31T20:09:59.815Z,26.05
2022-08-31T20:12:31.032Z,26.23
2022-08-31T20:15:02.274Z,23.83
2022-08-31T20:17:36.430Z,24.60
2022-08-31T20:20:07.729Z,27.98
2022-08-31T20:22:41.566Z,24.08
2022-08-31T20:25:18.044Z,24.52
2022-08-31T20:27:50.731Z,28.27
2022-08-31T20:30:21.658Z,27.13
2022-08-31T20:32:52.653Z,29.58
2022-08-31T20:35:23.977Z,27.92
2022-08-31T20:37:57.526Z,28.48
2022-08-31T20:40:29.845Z,23.88
2022-08-31T20:43:02.778Z,25.55
2022-08-31T20:45:35.518Z,27.13
2022-08-31T20:48:25.167Z,29.20
2022-08-31T20:51:20.497Z,28.30
2022-08-31T20:53:52.356Z,27.35
2022-08-31T20:59:11.776Z,27.27
2022-08-31T21:01:43.715Z,26.65
2022-08-31T21:04:15.039Z,29.65
2022-08-31T21:06:47.264Z,27.92
2022-08-31T21:12:02.610Z,26.95
2022-08-31T21:14:33.830Z,26.52
2022-08-31T21:17:07.569Z,28.75
2022-08-31T21:19:43.210Z,27.65
2022-08-31T21:22:18.539Z,29.45
2022-08-31T21:24:49.511Z,28.40
2022-08-31T21:27:20.790Z,28.58
2022-08-31T21:32:41.915Z,27.70
2022-08-31T21:35:16.315Z,29.30
2022-08-31T21:37:48.220Z,30.90
2022-08-31T21:40:19.726Z,28.25
2022-08-31T21:42:50.776Z,28.35
2022-08-31T21:45:21.988Z,27.15
2022-08-31T21:47:53.165Z,27.63
2022-08-31T21:50:24.221Z,29.48
2022-08-31T21:53:00.113Z,27.95
2022-08-31T21:55:31.387Z,25.88
2022-08-31T21:58:02.871Z,29.88
2022-08-31T22:00:33.795Z,29.58
2022-08-31T22:03:04.838Z,25.55
2022-08-31T22:05:42.848Z,27.65
2022-08-31T22:08:13.912Z,29.98
2022-08-31T22:10:45.874Z,28.42
2022-08-31T22:13:17.786Z,25.88
2022-08-31T22:15:49.274Z,26.58
2022-08-31T22:18:59.682Z,26.33
2022-08-31T22:21:17.346Z,27.65
2022-08-31T22:23:49.795Z,29.15
2022-08-31T22:26:22.429Z,26.27
2022-08-31T22:28:53.532Z,30.27
2022-08-31T22:31:26.543Z,27.58
2022-08-31T22:33:58.115Z,26.02
2022-08-31T22:36:33.927Z,30.85
2022-08-31T22:39:08.366Z,30.38
2022-08-31T22:41:42.709Z,29.27
2022-08-31T22:44:17.418Z,29.20
2022-08-31T22:46:49.108Z,27.75
2022-08-31T22:49:21.005Z,27.58
2022-08-31T22:51:52.074Z,28.25
2022-08-31T22:54:25.782Z,26.00
2022-08-31T22:56:57.049Z,31.47
2022-08-31T22:59:29.903Z,29.88
2022-08-31T23:04:48.508Z,26.95
2022-08-31T23:07:20.464Z,30.33
2022-08-31T23:09:51.175Z,30.83
2022-08-31T23:12:22.391Z,28.50
2022-08-31T23:14:53.558Z,29.23
2022-08-31T23:17:24.759Z,29.15
2022-08-31T23:19:55.712Z,30.23
2022-08-31T23:22:26.917Z,27.25
2022-08-31T23:25:02.018Z,28.05
2022-08-31T23:27:34.137Z,28.00
2022-08-31T23:30:10.119Z,28.90
2022-08-31T23:32:42.562Z,34.90
2022-08-31T23:35:17.898Z,42.90
2022-08-31T23:37:50.148Z,169.82
2022-08-31T23:40:21.491Z,115.50
2022-08-31T23:42:52.397Z,76.15
2022-08-31T23:45:23.413Z,105.30
2022-08-31T23:50:40.379Z,85.45
2022-08-31T23:53:15.789Z,83.80
2022-08-31T23:56:12.329Z,96.47
2022-08-31T23:58:44.498Z,82.25
